Snohomish County (Paine Field) Airport
KPAE : rendu visible

Aérodrome :











RETROUVEZ-NOUS SUR...

 
LOGIN :

S'inscrire | Disclaimer

   EN    FR    IT 

 









Légende :    VFR   VFR Marginal   IFR   IFR Intensif   IFR Très Intensif
Visi : 
Plafond : 
>= 8 km
>= 3000ft
5 à 8 km
1000 à 3000 ft
1500m à 5 km
500 à 1000 ft
800 à 1500m
200 à 500 ft
< 800m
< 200 ft
Symboles :   Orages  Brouillard  Fortes neiges  Fortes précipitations  Vent > 20 kt






- Altitude de l'aérodrome : 606 ft
- Code IATA : PAE


KPAE - Snohomish County (Paine Field)

DERNIER METAR :
  • 170953Z AUTO 16015G19KT 10SM SCT070 BKN100 BKN120 11/08 A3011 RMK AO2 RAE50 SLP196 P0004 T01110083

METARs EXPIRÉS :
  • 170853Z AUTO 15018KT 10SM -RA SCT070 OVC085 11/08 A3011 RMK AO2 SLP198 P0002 60002 T01060083 56022
  • 170753Z AUTO 16017G29KT 10SM -RA BKN100 BKN120 11/08 A3014 RMK AO2 PK WND 16029/0746 RAE0658B53 SLP206 P0000 T01110078 401170072

TAF KPAE
Valide du 17 à 08h jusqu'au 18 à 06h UTC


170820Z 1708/1806 15015G25KT P6SM -RA SCT035 BKN100
FM170900 18015G22KT P6SM -RA OVC035 WS020/23030KT
FM171200 18015KT 3SM -RA BR BKN008 OVC025
FM172000 18012G18KT P6SM VCSH BKN022 OVC050
FM172300 19012KT 6SM BR OVC008



MET'MAP, la Météo Aéronautique d'un coup d'oeil ! - Copyright ORBIFLY Décembre 2007 - Disclaimer

ORBIFLY MET'MAP TEAM :

Programmation & Développement : Alexandra Zaïnal
Conception & Développement : Baudouin d'Aumeries
Co-Programmation & Développement : Marc-Olivier Méhu
Soutien technique & logistique : Manuel Goepfert

Contact : metmap@orbifly.com




SOURCES & CREDITS :

   NOAA       Earth
Advisory